sensor_id;sensor_type;location;lat;lon;timestamp;temperature;humidity
39099;DHT22;24844;52.380;7.018;2023-02-07T00:00:12;2.00;99.90
39099;DHT22;24844;52.380;7.018;2023-02-07T00:02:42;1.90;99.90
39099;DHT22;24844;52.380;7.018;2023-02-07T00:05:07;1.60;99.90
39099;DHT22;24844;52.380;7.018;2023-02-07T00:07:33;1.60;99.90
39099;DHT22;24844;52.380;7.018;2023-02-07T00:09:58;1.50;99.90
39099;DHT22;24844;52.380;7.018;2023-02-07T00:12:24;1.60;99.90
39099;DHT22;24844;52.380;7.018;2023-02-07T00:14:49;1.70;99.90
39099;DHT22;24844;52.380;7.018;2023-02-07T00:17:15;1.70;99.90
39099;DHT22;24844;52.380;7.018;2023-02-07T00:19:40;1.50;99.90
39099;DHT22;24844;52.380;7.018;2023-02-07T00:22:06;1.50;99.90
39099;DHT22;24844;52.380;7.018;2023-02-07T00:24:32;1.60;99.90
39099;DHT22;24844;52.380;7.018;2023-02-07T00:26:57;1.60;99.90
39099;DHT22;24844;52.380;7.018;2023-02-07T00:29:23;1.50;99.90
39099;DHT22;24844;52.380;7.018;2023-02-07T00:31:48;1.70;99.90
39099;DHT22;24844;52.380;7.018;2023-02-07T00:34:14;1.60;99.90
39099;DHT22;24844;52.380;7.018;2023-02-07T00:36:40;1.70;99.90
39099;DHT22;24844;52.380;7.018;2023-02-07T00:39:10;1.70;99.90
39099;DHT22;24844;52.380;7.018;2023-02-07T00:41:36;1.50;99.90
39099;DHT22;24844;52.380;7.018;2023-02-07T00:44:02;1.40;99.90
39099;DHT22;24844;52.380;7.018;2023-02-07T00:46:27;1.50;99.90
39099;DHT22;24844;52.380;7.018;2023-02-07T00:48:53;1.40;99.90
39099;DHT22;24844;52.380;7.018;2023-02-07T00:51:19;1.50;99.90
39099;DHT22;24844;52.380;7.018;2023-02-07T00:53:44;1.70;99.90
39099;DHT22;24844;52.380;7.018;2023-02-07T00:56:12;1.60;99.90
39099;DHT22;24844;52.380;7.018;2023-02-07T00:58:38;1.40;99.90
39099;DHT22;24844;52.380;7.018;2023-02-07T01:01:04;1.20;99.90
39099;DHT22;24844;52.380;7.018;2023-02-07T01:03:29;1.10;99.90
39099;DHT22;24844;52.380;7.018;2023-02-07T01:05:55;0.90;99.90
39099;DHT22;24844;52.380;7.018;2023-02-07T01:08:21;1.20;99.90
39099;DHT22;24844;52.380;7.018;2023-02-07T01:10:47;1.00;99.90
39099;DHT22;24844;52.380;7.018;2023-02-07T01:13:13;1.30;99.90
39099;DHT22;24844;52.380;7.018;2023-02-07T01:15:45;1.40;99.90
39099;DHT22;24844;52.380;7.018;2023-02-07T01:18:12;1.30;99.90
39099;DHT22;24844;52.380;7.018;2023-02-07T01:20:38;1.30;99.90
39099;DHT22;24844;52.380;7.018;2023-02-07T01:23:04;1.30;99.90
39099;DHT22;24844;52.380;7.018;2023-02-07T01:25:30;1.30;99.90
39099;DHT22;24844;52.380;7.018;2023-02-07T01:27:56;1.30;99.90
39099;DHT22;24844;52.380;7.018;2023-02-07T01:30:22;1.10;99.90
39099;DHT22;24844;52.380;7.018;2023-02-07T01:32:48;1.20;99.90
39099;DHT22;24844;52.380;7.018;2023-02-07T01:35:13;1.10;99.90
39099;DHT22;24844;52.380;7.018;2023-02-07T01:37:39;1.10;99.90
39099;DHT22;24844;52.380;7.018;2023-02-07T01:40:05;1.20;99.90
39099;DHT22;24844;52.380;7.018;2023-02-07T01:42:31;1.10;99.90
39099;DHT22;24844;52.380;7.018;2023-02-07T01:45:00;1.10;99.90
39099;DHT22;24844;52.380;7.018;2023-02-07T01:47:26;1.30;99.90
39099;DHT22;24844;52.380;7.018;2023-02-07T01:49:55;0.90;99.90
39099;DHT22;24844;52.380;7.018;2023-02-07T01:52:23;0.80;99.90
39099;DHT22;24844;52.380;7.018;2023-02-07T01:54:53;1.00;99.90
39099;DHT22;24844;52.380;7.018;2023-02-07T01:57:21;0.80;99.90
39099;DHT22;24844;52.380;7.018;2023-02-07T01:59:50;0.80;99.90
39099;DHT22;24844;52.380;7.018;2023-02-07T02:02:18;0.70;99.90
39099;DHT22;24844;52.380;7.018;2023-02-07T02:04:45;0.70;99.90
39099;DHT22;24844;52.380;7.018;2023-02-07T02:07:12;0.40;99.90
39099;DHT22;24844;52.380;7.018;2023-02-07T02:09:38;0.40;99.90
39099;DHT22;24844;52.380;7.018;2023-02-07T02:12:40;0.40;99.90
39099;DHT22;24844;52.380;7.018;2023-02-07T02:32:02;0.00;99.90
39099;DHT22;24844;52.380;7.018;2023-02-07T02:34:42;-0.10;99.90
39099;DHT22;24844;52.380;7.018;2023-02-07T02:42:32;0.40;99.90
39099;DHT22;24844;52.380;7.018;2023-02-07T02:45:03;0.40;99.90
39099;DHT22;24844;52.380;7.018;2023-02-07T02:47:31;0.40;99.90
39099;DHT22;24844;52.380;7.018;2023-02-07T02:49:57;0.40;99.90
39099;DHT22;24844;52.380;7.018;2023-02-07T02:52:23;0.30;99.90
39099;DHT22;24844;52.380;7.018;2023-02-07T02:54:50;0.30;99.90
39099;DHT22;24844;52.380;7.018;2023-02-07T02:57:50;0.30;99.90
39099;DHT22;24844;52.380;7.018;2023-02-07T03:06:05;0.10;99.90
39099;DHT22;24844;52.380;7.018;2023-02-07T03:12:10;0.30;99.90
39099;DHT22;24844;52.380;7.018;2023-02-07T03:15:09;0.10;99.90
39099;DHT22;24844;52.380;7.018;2023-02-07T03:18:17;0.10;99.90
39099;DHT22;24844;52.380;7.018;2023-02-07T03:20:47;-0.10;99.90
39099;DHT22;24844;52.380;7.018;2023-02-07T03:23:15;0.00;99.90
39099;DHT22;24844;52.380;7.018;2023-02-07T03:25:43;-0.20;99.90
39099;DHT22;24844;52.380;7.018;2023-02-07T03:28:11;0.00;99.90
39099;DHT22;24844;52.380;7.018;2023-02-07T03:30:39;-0.20;99.90
39099;DHT22;24844;52.380;7.018;2023-02-07T03:33:10;-0.10;99.90
39099;DHT22;24844;52.380;7.018;2023-02-07T03:38:20;-0.40;99.90
39099;DHT22;24844;52.380;7.018;2023-02-07T03:40:48;-0.20;99.90
39099;DHT22;24844;52.380;7.018;2023-02-07T03:43:26;-0.20;99.90
39099;DHT22;24844;52.380;7.018;2023-02-07T03:45:52;-0.10;99.90
39099;DHT22;24844;52.380;7.018;2023-02-07T03:48:18;-0.30;99.90
39099;DHT22;24844;52.380;7.018;2023-02-07T03:50:44;-0.40;99.90
39099;DHT22;24844;52.380;7.018;2023-02-07T03:53:11;-0.30;99.90
39099;DHT22;24844;52.380;7.018;2023-02-07T03:55:37;-0.40;99.90
39099;DHT22;24844;52.380;7.018;2023-02-07T03:58:03;-0.40;99.90
39099;DHT22;24844;52.380;7.018;2023-02-07T04:00:28;-0.50;99.90
39099;DHT22;24844;52.380;7.018;2023-02-07T04:02:54;-0.30;99.90
39099;DHT22;24844;52.380;7.018;2023-02-07T04:05:19;-0.30;99.90
39099;DHT22;24844;52.380;7.018;2023-02-07T04:07:45;-0.30;99.90
39099;DHT22;24844;52.380;7.018;2023-02-07T04:10:11;-0.40;99.90
39099;DHT22;24844;52.380;7.018;2023-02-07T04:12:37;-0.30;99.90
39099;DHT22;24844;52.380;7.018;2023-02-07T04:15:03;-0.40;99.90
39099;DHT22;24844;52.380;7.018;2023-02-07T04:17:29;-0.30;99.90
39099;DHT22;24844;52.380;7.018;2023-02-07T04:19:55;-0.40;99.90
39099;DHT22;24844;52.380;7.018;2023-02-07T04:22:20;-0.40;99.90
39099;DHT22;24844;52.380;7.018;2023-02-07T04:24:46;-0.70;99.90
39099;DHT22;24844;52.380;7.018;2023-02-07T04:27:12;-0.70;99.90
39099;DHT22;24844;52.380;7.018;2023-02-07T04:29:38;-0.70;99.90
39099;DHT22;24844;52.380;7.018;2023-02-07T04:32:03;-0.70;99.90
39099;DHT22;24844;52.380;7.018;2023-02-07T04:34:29;-0.60;99.90
39099;DHT22;24844;52.380;7.018;2023-02-07T04:36:54;-0.70;99.90
39099;DHT22;24844;52.380;7.018;2023-02-07T04:39:20;-0.80;99.90
39099;DHT22;24844;52.380;7.018;2023-02-07T04:41:46;-0.80;99.90
39099;DHT22;24844;52.380;7.018;2023-02-07T04:44:12;-0.80;99.90
39099;DHT22;24844;52.380;7.018;2023-02-07T04:46:37;-0.80;99.90
39099;DHT22;24844;52.380;7.018;2023-02-07T04:49:03;-0.90;99.90
39099;DHT22;24844;52.380;7.018;2023-02-07T04:51:29;-0.90;99.90
39099;DHT22;24844;52.380;7.018;2023-02-07T04:53:55;-1.00;99.90
39099;DHT22;24844;52.380;7.018;2023-02-07T04:56:22;-1.10;99.90
39099;DHT22;24844;52.380;7.018;2023-02-07T04:58:47;-1.20;99.90
39099;DHT22;24844;52.380;7.018;2023-02-07T05:01:13;-1.00;99.90
39099;DHT22;24844;52.380;7.018;2023-02-07T05:03:39;-0.90;99.90
39099;DHT22;24844;52.380;7.018;2023-02-07T05:06:05;-1.00;99.90
39099;DHT22;24844;52.380;7.018;2023-02-07T05:08:31;-1.20;99.90
39099;DHT22;24844;52.380;7.018;2023-02-07T05:10:56;-1.20;99.90
39099;DHT22;24844;52.380;7.018;2023-02-07T05:13:22;-1.10;99.90
39099;DHT22;24844;52.380;7.018;2023-02-07T05:15:48;-1.00;99.90
39099;DHT22;24844;52.380;7.018;2023-02-07T05:18:13;-0.90;99.90
39099;DHT22;24844;52.380;7.018;2023-02-07T05:20:39;-0.90;99.90
39099;DHT22;24844;52.380;7.018;2023-02-07T05:23:05;-1.00;99.90
39099;DHT22;24844;52.380;7.018;2023-02-07T05:25:30;-0.90;99.90
39099;DHT22;24844;52.380;7.018;2023-02-07T05:27:56;-1.00;99.90
39099;DHT22;24844;52.380;7.018;2023-02-07T05:30:21;-0.90;99.90
39099;DHT22;24844;52.380;7.018;2023-02-07T05:32:47;-0.90;99.90
39099;DHT22;24844;52.380;7.018;2023-02-07T05:35:36;-1.00;99.90
39099;DHT22;24844;52.380;7.018;2023-02-07T05:38:03;-1.40;99.90
39099;DHT22;24844;52.380;7.018;2023-02-07T05:40:32;-1.60;99.90
39099;DHT22;24844;52.380;7.018;2023-02-07T05:42:58;-1.70;99.90
39099;DHT22;24844;52.380;7.018;2023-02-07T05:45:23;-1.70;99.90
39099;DHT22;24844;52.380;7.018;2023-02-07T05:47:49;-1.70;99.90
39099;DHT22;24844;52.380;7.018;2023-02-07T05:50:15;-1.40;99.90
39099;DHT22;24844;52.380;7.018;2023-02-07T05:52:41;-1.30;99.90
39099;DHT22;24844;52.380;7.018;2023-02-07T05:55:07;-1.30;99.90
39099;DHT22;24844;52.380;7.018;2023-02-07T05:57:32;-1.30;99.90
39099;DHT22;24844;52.380;7.018;2023-02-07T05:59:58;-1.20;99.90
39099;DHT22;24844;52.380;7.018;2023-02-07T06:02:23;-1.20;99.90
39099;DHT22;24844;52.380;7.018;2023-02-07T06:04:49;-1.30;99.90
39099;DHT22;24844;52.380;7.018;2023-02-07T06:07:15;-1.40;99.90
39099;DHT22;24844;52.380;7.018;2023-02-07T06:09:40;-1.30;99.90
39099;DHT22;24844;52.380;7.018;2023-02-07T06:12:06;-1.30;99.90
39099;DHT22;24844;52.380;7.018;2023-02-07T06:14:31;-1.60;99.90
39099;DHT22;24844;52.380;7.018;2023-02-07T06:16:57;-1.90;99.90
39099;DHT22;24844;52.380;7.018;2023-02-07T06:19:23;-2.00;99.90
39099;DHT22;24844;52.380;7.018;2023-02-07T06:21:48;-1.80;99.90
39099;DHT22;24844;52.380;7.018;2023-02-07T06:24:14;-1.60;99.90
39099;DHT22;24844;52.380;7.018;2023-02-07T06:26:40;-1.50;99.90
39099;DHT22;24844;52.380;7.018;2023-02-07T06:29:06;-1.40;99.90
39099;DHT22;24844;52.380;7.018;2023-02-07T06:31:31;-1.70;99.90
39099;DHT22;24844;52.380;7.018;2023-02-07T06:33:57;-2.10;99.90
39099;DHT22;24844;52.380;7.018;2023-02-07T06:36:22;-2.00;99.90
39099;DHT22;24844;52.380;7.018;2023-02-07T06:38:48;-1.80;99.90
39099;DHT22;24844;52.380;7.018;2023-02-07T06:41:17;-1.90;99.90
39099;DHT22;24844;52.380;7.018;2023-02-07T06:43:42;-1.80;99.90
39099;DHT22;24844;52.380;7.018;2023-02-07T06:46:08;-1.70;99.90
39099;DHT22;24844;52.380;7.018;2023-02-07T06:48:33;-1.80;99.90
39099;DHT22;24844;52.380;7.018;2023-02-07T06:50:59;-1.80;99.90
39099;DHT22;24844;52.380;7.018;2023-02-07T06:53:24;-1.70;99.90
39099;DHT22;24844;52.380;7.018;2023-02-07T06:55:50;-1.70;99.90
39099;DHT22;24844;52.380;7.018;2023-02-07T06:58:15;-1.70;99.90
39099;DHT22;24844;52.380;7.018;2023-02-07T07:00:41;-1.70;99.90
39099;DHT22;24844;52.380;7.018;2023-02-07T07:03:12;-1.50;99.90
39099;DHT22;24844;52.380;7.018;2023-02-07T07:05:38;-1.50;99.90
39099;DHT22;24844;52.380;7.018;2023-02-07T07:08:04;-1.60;99.90
39099;DHT22;24844;52.380;7.018;2023-02-07T07:10:30;-1.70;99.90
39099;DHT22;24844;52.380;7.018;2023-02-07T07:12:55;-1.60;99.90
39099;DHT22;24844;52.380;7.018;2023-02-07T07:15:21;-1.50;99.90
39099;DHT22;24844;52.380;7.018;2023-02-07T07:17:46;-1.50;99.90
39099;DHT22;24844;52.380;7.018;2023-02-07T07:20:12;-1.40;99.90
39099;DHT22;24844;52.380;7.018;2023-02-07T07:22:37;-1.40;99.90
39099;DHT22;24844;52.380;7.018;2023-02-07T07:25:03;-1.40;99.90
39099;DHT22;24844;52.380;7.018;2023-02-07T07:27:29;-1.60;99.90
39099;DHT22;24844;52.380;7.018;2023-02-07T07:29:54;-1.80;99.90
39099;DHT22;24844;52.380;7.018;2023-02-07T07:32:20;-1.70;99.90
39099;DHT22;24844;52.380;7.018;2023-02-07T07:34:45;-1.50;99.90
39099;DHT22;24844;52.380;7.018;2023-02-07T07:37:14;-1.40;99.90
39099;DHT22;24844;52.380;7.018;2023-02-07T07:39:40;-1.60;99.90
39099;DHT22;24844;52.380;7.018;2023-02-07T07:42:05;-1.80;99.90
39099;DHT22;24844;52.380;7.018;2023-02-07T07:44:31;-1.60;99.90
39099;DHT22;24844;52.380;7.018;2023-02-07T07:46:57;-1.60;99.90
39099;DHT22;24844;52.380;7.018;2023-02-07T07:49:22;-1.60;99.90
39099;DHT22;24844;52.380;7.018;2023-02-07T07:51:48;-1.40;99.90
39099;DHT22;24844;52.380;7.018;2023-02-07T07:54:14;-1.30;99.90
39099;DHT22;24844;52.380;7.018;2023-02-07T07:56:40;-1.30;99.90
39099;DHT22;24844;52.380;7.018;2023-02-07T07:59:06;-1.20;99.90
39099;DHT22;24844;52.380;7.018;2023-02-07T08:01:31;-1.10;99.90
39099;DHT22;24844;52.380;7.018;2023-02-07T08:03:57;-0.90;99.90
39099;DHT22;24844;52.380;7.018;2023-02-07T08:06:23;-0.80;99.90
39099;DHT22;24844;52.380;7.018;2023-02-07T08:08:48;-0.70;99.90
39099;DHT22;24844;52.380;7.018;2023-02-07T08:11:14;-0.60;99.90
39099;DHT22;24844;52.380;7.018;2023-02-07T08:13:39;-0.50;99.90
39099;DHT22;24844;52.380;7.018;2023-02-07T08:16:06;-0.40;99.90
39099;DHT22;24844;52.380;7.018;2023-02-07T08:18:35;-0.30;99.90
39099;DHT22;24844;52.380;7.018;2023-02-07T08:21:01;-0.40;99.90
39099;DHT22;24844;52.380;7.018;2023-02-07T08:23:27;-0.40;99.90
39099;DHT22;24844;52.380;7.018;2023-02-07T08:25:53;0.00;99.90
39099;DHT22;24844;52.380;7.018;2023-02-07T08:28:19;0.30;99.90
39099;DHT22;24844;52.380;7.018;2023-02-07T08:30:44;0.80;99.90
39099;DHT22;24844;52.380;7.018;2023-02-07T08:33:12;1.60;99.90
39099;DHT22;24844;52.380;7.018;2023-02-07T08:35:39;2.00;99.90
39099;DHT22;24844;52.380;7.018;2023-02-07T08:38:04;3.20;99.90
39099;DHT22;24844;52.380;7.018;2023-02-07T08:40:30;3.30;99.90
39099;DHT22;24844;52.380;7.018;2023-02-07T08:42:56;3.60;99.90
39099;DHT22;24844;52.380;7.018;2023-02-07T08:45:22;3.90;99.90
39099;DHT22;24844;52.380;7.018;2023-02-07T08:47:47;4.40;99.90
39099;DHT22;24844;52.380;7.018;2023-02-07T08:50:15;4.70;99.90
39099;DHT22;24844;52.380;7.018;2023-02-07T08:52:41;4.90;99.90
39099;DHT22;24844;52.380;7.018;2023-02-07T08:55:07;4.60;99.90
39099;DHT22;24844;52.380;7.018;2023-02-07T08:57:33;3.70;99.90
39099;DHT22;24844;52.380;7.018;2023-02-07T08:59:59;3.40;99.90
39099;DHT22;24844;52.380;7.018;2023-02-07T09:02:25;3.30;99.90
39099;DHT22;24844;52.380;7.018;2023-02-07T09:04:51;4.00;99.90
39099;DHT22;24844;52.380;7.018;2023-02-07T09:07:17;4.20;99.90
39099;DHT22;24844;52.380;7.018;2023-02-07T09:09:43;4.30;99.90
39099;DHT22;24844;52.380;7.018;2023-02-07T09:12:10;4.00;99.90
39099;DHT22;24844;52.380;7.018;2023-02-07T09:14:36;4.30;99.90
39099;DHT22;24844;52.380;7.018;2023-02-07T09:17:02;4.10;99.90
39099;DHT22;24844;52.380;7.018;2023-02-07T09:19:28;4.10;99.90
39099;DHT22;24844;52.380;7.018;2023-02-07T09:21:53;4.00;99.90
39099;DHT22;24844;52.380;7.018;2023-02-07T09:24:19;4.10;99.90
39099;DHT22;24844;52.380;7.018;2023-02-07T09:26:45;4.20;99.90
39099;DHT22;24844;52.380;7.018;2023-02-07T09:29:12;4.50;99.90
39099;DHT22;24844;52.380;7.018;2023-02-07T09:31:39;4.70;99.90
39099;DHT22;24844;52.380;7.018;2023-02-07T09:34:05;4.50;99.90
39099;DHT22;24844;52.380;7.018;2023-02-07T09:36:31;4.00;99.90
39099;DHT22;24844;52.380;7.018;2023-02-07T09:38:57;3.60;99.90
39099;DHT22;24844;52.380;7.018;2023-02-07T09:44:12;2.80;99.90
39099;DHT22;24844;52.380;7.018;2023-02-07T09:46:59;3.00;99.90
39099;DHT22;24844;52.380;7.018;2023-02-07T09:49:45;3.10;99.90
39099;DHT22;24844;52.380;7.018;2023-02-07T09:52:17;3.30;99.90
39099;DHT22;24844;52.380;7.018;2023-02-07T09:54:47;3.60;99.90
39099;DHT22;24844;52.380;7.018;2023-02-07T09:57:20;3.90;99.90
39099;DHT22;24844;52.380;7.018;2023-02-07T09:59:57;4.00;99.90
39099;DHT22;24844;52.380;7.018;2023-02-07T10:05:01;3.60;99.90
39099;DHT22;24844;52.380;7.018;2023-02-07T10:07:28;3.60;99.90
39099;DHT22;24844;52.380;7.018;2023-02-07T10:09:55;3.90;99.90
39099;DHT22;24844;52.380;7.018;2023-02-07T10:12:56;3.70;99.90
39099;DHT22;24844;52.380;7.018;2023-02-07T10:15:40;3.30;99.90
39099;DHT22;24844;52.380;7.018;2023-02-07T10:20:54;3.00;99.90
39099;DHT22;24844;52.380;7.018;2023-02-07T10:26:37;3.50;99.90
39099;DHT22;24844;52.380;7.018;2023-02-07T10:29:33;3.90;99.90
39099;DHT22;24844;52.380;7.018;2023-02-07T10:32:22;3.90;99.90
39099;DHT22;24844;52.380;7.018;2023-02-07T10:34:51;3.90;99.90
39099;DHT22;24844;52.380;7.018;2023-02-07T10:37:24;3.60;99.90
39099;DHT22;24844;52.380;7.018;2023-02-07T10:42:37;4.20;99.90
39099;DHT22;24844;52.380;7.018;2023-02-07T10:45:04;4.50;99.90
39099;DHT22;24844;52.380;7.018;2023-02-07T10:47:35;4.70;99.90
39099;DHT22;24844;52.380;7.018;2023-02-07T10:50:07;5.30;99.90
39099;DHT22;24844;52.380;7.018;2023-02-07T10:52:38;5.70;99.90
39099;DHT22;24844;52.380;7.018;2023-02-07T10:55:06;5.90;99.90
39099;DHT22;24844;52.380;7.018;2023-02-07T10:57:33;6.40;99.90
39099;DHT22;24844;52.380;7.018;2023-02-07T11:00:05;7.00;99.90
39099;DHT22;24844;52.380;7.018;2023-02-07T11:02:39;7.70;99.90
39099;DHT22;24844;52.380;7.018;2023-02-07T11:07:40;9.00;96.10
39099;DHT22;24844;52.380;7.018;2023-02-07T11:10:14;8.20;96.40
39099;DHT22;24844;52.380;7.018;2023-02-07T11:12:46;8.60;98.40
39099;DHT22;24844;52.380;7.018;2023-02-07T11:15:20;8.80;96.00
39099;DHT22;24844;52.380;7.018;2023-02-07T11:17:49;10.20;99.30
39099;DHT22;24844;52.380;7.018;2023-02-07T11:20:24;10.00;93.00
39099;DHT22;24844;52.380;7.018;2023-02-07T11:22:55;9.50;91.30
39099;DHT22;24844;52.380;7.018;2023-02-07T11:25:29;10.30;91.80
39099;DHT22;24844;52.380;7.018;2023-02-07T11:27:56;10.10;93.90
39099;DHT22;24844;52.380;7.018;2023-02-07T11:30:23;12.00;90.70
39099;DHT22;24844;52.380;7.018;2023-02-07T11:33:03;12.90;93.80
39099;DHT22;24844;52.380;7.018;2023-02-07T11:35:29;13.90;90.80
39099;DHT22;24844;52.380;7.018;2023-02-07T11:38:04;13.90;82.10
39099;DHT22;24844;52.380;7.018;2023-02-07T11:43:11;13.60;84.40
39099;DHT22;24844;52.380;7.018;2023-02-07T11:45:39;12.50;86.30
39099;DHT22;24844;52.380;7.018;2023-02-07T11:48:23;11.90;90.10
39099;DHT22;24844;52.380;7.018;2023-02-07T11:50:58;11.10;92.60
39099;DHT22;24844;52.380;7.018;2023-02-07T11:55:57;7.80;98.80
39099;DHT22;24844;52.380;7.018;2023-02-07T11:58:37;6.40;99.90
39099;DHT22;24844;52.380;7.018;2023-02-07T12:01:05;6.20;99.90
39099;DHT22;24844;52.380;7.018;2023-02-07T12:03:49;5.80;99.90
39099;DHT22;24844;52.380;7.018;2023-02-07T12:06:18;6.10;99.90
39099;DHT22;24844;52.380;7.018;2023-02-07T12:08:46;6.20;99.90
39099;DHT22;24844;52.380;7.018;2023-02-07T12:11:16;6.20;99.90
39099;DHT22;24844;52.380;7.018;2023-02-07T12:13:46;5.90;99.90
39099;DHT22;24844;52.380;7.018;2023-02-07T12:16:20;5.60;99.90
39099;DHT22;24844;52.380;7.018;2023-02-07T12:18:52;5.20;99.90
39099;DHT22;24844;52.380;7.018;2023-02-07T12:21:34;5.10;99.90
39099;DHT22;24844;52.380;7.018;2023-02-07T12:24:03;5.20;99.90
39099;DHT22;24844;52.380;7.018;2023-02-07T12:26:34;5.40;99.90
39099;DHT22;24844;52.380;7.018;2023-02-07T12:31:57;5.20;99.90
39099;DHT22;24844;52.380;7.018;2023-02-07T12:34:42;4.90;99.90
39099;DHT22;24844;52.380;7.018;2023-02-07T12:40:30;5.30;99.90
39099;DHT22;24844;52.380;7.018;2023-02-07T12:43:09;5.40;99.90
39099;DHT22;24844;52.380;7.018;2023-02-07T12:48:47;5.30;99.90
39099;DHT22;24844;52.380;7.018;2023-02-07T12:54:43;5.40;99.90
39099;DHT22;24844;52.380;7.018;2023-02-07T12:57:26;5.50;99.90
39099;DHT22;24844;52.380;7.018;2023-02-07T13:05:50;5.10;99.90
39099;DHT22;24844;52.380;7.018;2023-02-07T13:11:17;5.20;99.90
39099;DHT22;24844;52.380;7.018;2023-02-07T13:17:26;4.80;99.90
39099;DHT22;24844;52.380;7.018;2023-02-07T13:19:47;5.10;99.90
39099;DHT22;24844;52.380;7.018;2023-02-07T13:22:35;5.50;99.90
39099;DHT22;24844;52.380;7.018;2023-02-07T13:25:04;5.60;99.90
39099;DHT22;24844;52.380;7.018;2023-02-07T13:27:33;5.90;99.90
39099;DHT22;24844;52.380;7.018;2023-02-07T13:30:00;5.60;99.90
39099;DHT22;24844;52.380;7.018;2023-02-07T13:32:27;5.70;99.90
39099;DHT22;24844;52.380;7.018;2023-02-07T13:35:12;5.50;99.90
39099;DHT22;24844;52.380;7.018;2023-02-07T13:38:33;5.20;99.90
39099;DHT22;24844;52.380;7.018;2023-02-07T13:48:55;5.00;99.90
39099;DHT22;24844;52.380;7.018;2023-02-07T13:56:54;5.40;99.90
39099;DHT22;24844;52.380;7.018;2023-02-07T13:59:53;5.40;99.90
39099;DHT22;24844;52.380;7.018;2023-02-07T14:02:29;5.50;99.90
39099;DHT22;24844;52.380;7.018;2023-02-07T14:05:06;5.30;99.90
39099;DHT22;24844;52.380;7.018;2023-02-07T14:07:34;5.20;99.90
39099;DHT22;24844;52.380;7.018;2023-02-07T14:10:02;5.30;99.90
39099;DHT22;24844;52.380;7.018;2023-02-07T14:12:30;5.20;99.90
39099;DHT22;24844;52.380;7.018;2023-02-07T14:18:03;5.60;99.90
39099;DHT22;24844;52.380;7.018;2023-02-07T14:30:36;5.70;99.90
39099;DHT22;24844;52.380;7.018;2023-02-07T14:33:16;5.70;99.90
39099;DHT22;24844;52.380;7.018;2023-02-07T14:36:00;5.60;99.90
39099;DHT22;24844;52.380;7.018;2023-02-07T14:38:31;5.80;99.90
39099;DHT22;24844;52.380;7.018;2023-02-07T14:41:05;5.80;99.90
39099;DHT22;24844;52.380;7.018;2023-02-07T14:43:49;5.60;99.90
39099;DHT22;24844;52.380;7.018;2023-02-07T14:46:39;5.60;99.90
39099;DHT22;24844;52.380;7.018;2023-02-07T14:49:23;5.80;99.90
39099;DHT22;24844;52.380;7.018;2023-02-07T15:04:56;5.40;99.90
39099;DHT22;24844;52.380;7.018;2023-02-07T15:07:22;5.30;99.90
39099;DHT22;24844;52.380;7.018;2023-02-07T15:09:48;5.50;99.90
39099;DHT22;24844;52.380;7.018;2023-02-07T15:12:23;5.50;99.90
39099;DHT22;24844;52.380;7.018;2023-02-07T15:14:52;5.50;99.90
39099;DHT22;24844;52.380;7.018;2023-02-07T15:17:20;5.40;99.90
39099;DHT22;24844;52.380;7.018;2023-02-07T15:19:46;5.30;99.90
39099;DHT22;24844;52.380;7.018;2023-02-07T15:22:24;5.20;99.90
39099;DHT22;24844;52.380;7.018;2023-02-07T15:24:51;5.30;99.90
39099;DHT22;24844;52.380;7.018;2023-02-07T15:27:27;5.30;99.90
39099;DHT22;24844;52.380;7.018;2023-02-07T15:29:56;5.20;99.90
39099;DHT22;24844;52.380;7.018;2023-02-07T15:32:24;5.50;99.90
39099;DHT22;24844;52.380;7.018;2023-02-07T15:34:52;5.30;99.90
39099;DHT22;24844;52.380;7.018;2023-02-07T15:37:22;5.30;99.90
39099;DHT22;24844;52.380;7.018;2023-02-07T15:39:52;5.20;99.90
39099;DHT22;24844;52.380;7.018;2023-02-07T15:42:19;5.00;99.90
39099;DHT22;24844;52.380;7.018;2023-02-07T15:44:48;5.10;99.90
39099;DHT22;24844;52.380;7.018;2023-02-07T15:47:33;5.00;99.90
39099;DHT22;24844;52.380;7.018;2023-02-07T15:52:41;4.90;99.90
39099;DHT22;24844;52.380;7.018;2023-02-07T15:55:33;4.80;99.90
39099;DHT22;24844;52.380;7.018;2023-02-07T15:58:04;4.70;99.90
39099;DHT22;24844;52.380;7.018;2023-02-07T16:00:39;4.70;99.90
39099;DHT22;24844;52.380;7.018;2023-02-07T16:03:10;4.80;99.90
39099;DHT22;24844;52.380;7.018;2023-02-07T16:05:38;4.70;99.90
39099;DHT22;24844;52.380;7.018;2023-02-07T16:08:06;4.60;99.90
39099;DHT22;24844;52.380;7.018;2023-02-07T16:10:51;4.50;99.90
39099;DHT22;24844;52.380;7.018;2023-02-07T16:13:17;4.50;99.90
39099;DHT22;24844;52.380;7.018;2023-02-07T16:15:57;4.50;99.90
39099;DHT22;24844;52.380;7.018;2023-02-07T16:18:35;4.50;99.90
39099;DHT22;24844;52.380;7.018;2023-02-07T16:21:01;4.50;99.90
39099;DHT22;24844;52.380;7.018;2023-02-07T16:23:26;4.50;99.90
39099;DHT22;24844;52.380;7.018;2023-02-07T16:25:52;4.70;99.90
39099;DHT22;24844;52.380;7.018;2023-02-07T16:28:18;4.50;99.90
39099;DHT22;24844;52.380;7.018;2023-02-07T16:30:44;4.50;99.90
39099;DHT22;24844;52.380;7.018;2023-02-07T16:33:11;4.40;99.90
39099;DHT22;24844;52.380;7.018;2023-02-07T16:35:38;4.60;99.90
39099;DHT22;24844;52.380;7.018;2023-02-07T16:38:03;4.50;99.90
39099;DHT22;24844;52.380;7.018;2023-02-07T16:40:29;4.20;99.90
39099;DHT22;24844;52.380;7.018;2023-02-07T16:42:55;4.20;99.90
39099;DHT22;24844;52.380;7.018;2023-02-07T16:45:28;4.30;99.90
39099;DHT22;24844;52.380;7.018;2023-02-07T16:47:55;4.30;99.90
39099;DHT22;24844;52.380;7.018;2023-02-07T16:50:24;4.20;99.90
39099;DHT22;24844;52.380;7.018;2023-02-07T16:52:51;4.10;99.90
39099;DHT22;24844;52.380;7.018;2023-02-07T16:55:18;4.00;99.90
39099;DHT22;24844;52.380;7.018;2023-02-07T16:57:46;3.90;99.90
39099;DHT22;24844;52.380;7.018;2023-02-07T17:00:21;3.70;99.90
39099;DHT22;24844;52.380;7.018;2023-02-07T17:02:48;3.40;99.90
39099;DHT22;24844;52.380;7.018;2023-02-07T17:05:16;3.20;99.90
39099;DHT22;24844;52.380;7.018;2023-02-07T17:07:42;3.10;99.90
39099;DHT22;24844;52.380;7.018;2023-02-07T17:10:24;3.20;99.90
39099;DHT22;24844;52.380;7.018;2023-02-07T17:12:50;3.20;99.90
39099;DHT22;24844;52.380;7.018;2023-02-07T17:15:16;3.20;99.90
39099;DHT22;24844;52.380;7.018;2023-02-07T17:17:42;3.10;99.90
39099;DHT22;24844;52.380;7.018;2023-02-07T17:20:26;3.00;99.90
39099;DHT22;24844;52.380;7.018;2023-02-07T17:22:52;3.00;99.90
39099;DHT22;24844;52.380;7.018;2023-02-07T17:25:20;2.90;99.90
39099;DHT22;24844;52.380;7.018;2023-02-07T17:27:46;2.90;99.90
39099;DHT22;24844;52.380;7.018;2023-02-07T17:30:18;3.00;99.90
39099;DHT22;24844;52.380;7.018;2023-02-07T17:32:44;2.90;99.90
39099;DHT22;24844;52.380;7.018;2023-02-07T17:35:10;2.90;99.90
39099;DHT22;24844;52.380;7.018;2023-02-07T17:37:36;2.70;99.90
39099;DHT22;24844;52.380;7.018;2023-02-07T17:40:02;2.70;99.90
39099;DHT22;24844;52.380;7.018;2023-02-07T17:42:28;2.50;99.90
39099;DHT22;24844;52.380;7.018;2023-02-07T17:44:54;2.40;99.90
39099;DHT22;24844;52.380;7.018;2023-02-07T17:47:19;2.40;99.90
39099;DHT22;24844;52.380;7.018;2023-02-07T17:49:45;2.40;99.90
39099;DHT22;24844;52.380;7.018;2023-02-07T17:52:10;2.30;99.90
39099;DHT22;24844;52.380;7.018;2023-02-07T17:54:38;2.20;99.90